createdAt,value
2017-11-29T00:00:21.769Z,36.00
2017-11-29T00:02:47.994Z,32.97
2017-11-29T00:05:14.383Z,34.47
2017-11-29T00:07:40.797Z,31.33
2017-11-29T00:10:07.224Z,29.33
2017-11-29T00:12:33.594Z,32.43
2017-11-29T00:15:00.051Z,42.67
2017-11-29T00:17:26.530Z,38.70
2017-11-29T00:19:53.005Z,41.20
2017-11-29T00:22:19.490Z,37.43
2017-11-29T00:24:46.005Z,33.23
2017-11-29T00:27:12.435Z,34.23
2017-11-29T00:29:38.902Z,32.90
2017-11-29T00:32:05.334Z,29.17
2017-11-29T00:34:31.790Z,25.60
2017-11-29T00:36:58.362Z,20.70
2017-11-29T00:39:24.839Z,22.47
2017-11-29T00:41:51.319Z,22.23
2017-11-29T00:44:17.903Z,19.83
2017-11-29T00:46:44.340Z,19.93
2017-11-29T00:49:10.792Z,19.90
2017-11-29T00:51:37.305Z,17.13
2017-11-29T00:54:03.777Z,19.07
2017-11-29T00:56:30.226Z,17.60
2017-11-29T00:58:56.914Z,14.27
2017-11-29T01:01:23.377Z,16.50
2017-11-29T01:03:49.849Z,15.73
2017-11-29T01:06:16.365Z,15.37
2017-11-29T01:08:42.790Z,17.80
2017-11-29T01:11:09.230Z,16.77
2017-11-29T01:13:35.702Z,15.83
2017-11-29T01:16:02.159Z,16.77
2017-11-29T01:18:28.578Z,15.03
2017-11-29T01:20:55.221Z,14.33
2017-11-29T01:23:21.758Z,15.87
2017-11-29T01:25:48.293Z,14.00
2017-11-29T01:28:14.780Z,15.73
2017-11-29T01:30:41.195Z,15.33
2017-11-29T01:33:07.633Z,13.97
2017-11-29T01:35:34.098Z,17.20
2017-11-29T01:38:00.571Z,15.00
2017-11-29T01:40:26.982Z,15.27
2017-11-29T01:42:53.610Z,16.27
2017-11-29T01:45:20.068Z,16.03
2017-11-29T01:47:46.801Z,14.93
2017-11-29T01:50:13.385Z,14.53
2017-11-29T01:52:39.825Z,15.10
2017-11-29T01:55:06.350Z,15.63
2017-11-29T01:57:32.886Z,14.80
2017-11-29T01:59:59.357Z,13.33
2017-11-29T02:02:25.793Z,13.93
2017-11-29T02:04:52.311Z,14.63
2017-11-29T02:07:18.736Z,15.03
2017-11-29T02:09:45.182Z,14.43
2017-11-29T02:12:11.650Z,14.97
2017-11-29T02:14:38.063Z,16.23
2017-11-29T02:17:04.499Z,16.17
2017-11-29T02:19:31.034Z,16.67
2017-11-29T02:21:57.694Z,18.43
2017-11-29T02:24:24.433Z,22.33
2017-11-29T02:26:51.031Z,21.23
2017-11-29T02:29:17.606Z,20.30
2017-11-29T02:31:44.180Z,15.70
2017-11-29T02:34:10.758Z,17.63
2017-11-29T02:36:37.344Z,15.87
2017-11-29T02:39:03.970Z,17.67
2017-11-29T02:41:42.546Z,24.97
2017-11-29T02:44:08.983Z,20.63
2017-11-29T02:46:35.577Z,22.33
2017-11-29T02:49:02.130Z,22.60
2017-11-29T02:51:28.668Z,23.63
2017-11-29T02:53:55.253Z,23.27
2017-11-29T02:56:21.890Z,21.70
2017-11-29T02:58:48.501Z,21.53
2017-11-29T03:01:15.063Z,27.00
2017-11-29T03:03:41.651Z,28.83
2017-11-29T03:06:08.170Z,28.50
2017-11-29T03:08:34.649Z,35.40
2017-11-29T03:11:01.210Z,35.53
2017-11-29T03:13:27.693Z,35.60
2017-11-29T03:15:54.116Z,32.93
2017-11-29T03:18:20.613Z,40.13
2017-11-29T03:20:47.026Z,39.60
2017-11-29T03:23:13.578Z,36.23
2017-11-29T03:25:40.074Z,35.80
2017-11-29T03:28:06.546Z,30.67
2017-11-29T03:30:32.964Z,24.17
2017-11-29T03:32:59.516Z,22.30
2017-11-29T03:35:25.935Z,23.77
2017-11-29T03:37:52.391Z,26.97
2017-11-29T03:40:18.890Z,22.87
2017-11-29T03:42:45.335Z,22.10
2017-11-29T03:45:11.759Z,22.90
2017-11-29T03:47:38.246Z,27.10
2017-11-29T03:50:04.754Z,28.30
2017-11-29T03:52:31.161Z,29.97
2017-11-29T03:54:57.617Z,22.47
2017-11-29T03:57:24.441Z,25.73
2017-11-29T03:59:50.846Z,24.63
2017-11-29T04:02:17.234Z,24.03
2017-11-29T04:04:43.604Z,28.30
2017-11-29T04:07:10.101Z,22.33
2017-11-29T04:09:36.627Z,23.40
2017-11-29T04:12:03.037Z,26.60
2017-11-29T04:14:29.431Z,25.43
2017-11-29T04:16:55.923Z,22.53
2017-11-29T04:19:22.373Z,28.20
2017-11-29T04:21:48.900Z,35.70
2017-11-29T04:24:15.337Z,36.63
2017-11-29T04:26:41.866Z,34.13
2017-11-29T04:29:08.278Z,28.17
2017-11-29T04:31:34.682Z,30.07
2017-11-29T04:34:01.009Z,30.37
2017-11-29T04:36:27.353Z,36.00
2017-11-29T04:38:53.729Z,39.00
2017-11-29T04:41:20.054Z,44.80
2017-11-29T04:43:46.457Z,43.00
2017-11-29T04:46:12.837Z,37.93
2017-11-29T04:48:39.297Z,33.33
2017-11-29T04:51:05.751Z,35.73
2017-11-29T04:53:32.266Z,30.00
2017-11-29T04:55:58.706Z,35.93
2017-11-29T04:58:25.116Z,31.80
2017-11-29T05:00:51.662Z,39.80
2017-11-29T05:03:18.140Z,39.23
2017-11-29T05:05:44.621Z,37.03
2017-11-29T05:08:11.103Z,37.97
2017-11-29T05:10:37.482Z,41.20
2017-11-29T05:13:03.887Z,46.17
2017-11-29T05:15:30.382Z,56.37
2017-11-29T05:17:56.785Z,42.40
2017-11-29T05:20:23.257Z,55.27
2017-11-29T05:22:49.745Z,60.63
2017-11-29T05:25:16.161Z,57.47
2017-11-29T05:27:42.635Z,55.27
2017-11-29T05:30:09.151Z,50.27
2017-11-29T05:32:35.601Z,45.20
2017-11-29T05:35:02.061Z,44.10
2017-11-29T05:37:28.511Z,44.60
2017-11-29T05:39:54.929Z,45.43
2017-11-29T05:42:21.375Z,36.37
2017-11-29T05:44:47.866Z,170.33
2017-11-29T05:47:14.293Z,139.47
2017-11-29T05:49:40.744Z,82.30
2017-11-29T05:52:07.213Z,44.63
2017-11-29T05:54:33.653Z,39.83
2017-11-29T05:57:00.081Z,43.13
2017-11-29T05:59:26.508Z,53.93
2017-11-29T06:01:52.942Z,61.83
2017-11-29T06:04:19.330Z,58.47
2017-11-29T06:06:45.821Z,54.53
2017-11-29T06:09:12.470Z,49.77
2017-11-29T06:11:38.892Z,49.77
2017-11-29T06:14:05.398Z,40.93
2017-11-29T06:16:31.948Z,44.70
2017-11-29T06:18:58.519Z,50.57
2017-11-29T06:21:25.086Z,52.90
2017-11-29T06:23:51.558Z,46.70
2017-11-29T06:26:18.099Z,44.67
2017-11-29T06:28:44.662Z,44.87
2017-11-29T06:31:11.277Z,75.10
2017-11-29T06:33:37.807Z,55.67
2017-11-29T06:36:04.319Z,59.57
2017-11-29T06:38:30.984Z,60.60
2017-11-29T06:40:57.458Z,85.30
2017-11-29T06:43:23.838Z,72.63
2017-11-29T06:45:50.165Z,112.40
2017-11-29T06:48:16.498Z,81.13
2017-11-29T06:50:42.945Z,93.80
2017-11-29T06:53:09.278Z,102.07
2017-11-29T06:55:35.748Z,98.83
2017-11-29T06:58:02.295Z,115.67
2017-11-29T07:00:28.700Z,110.63
2017-11-29T07:02:55.118Z,117.17
2017-11-29T07:05:21.542Z,103.10
2017-11-29T07:07:47.957Z,103.77
2017-11-29T07:10:16.434Z,105.20
2017-11-29T07:12:43.305Z,102.00
2017-11-29T07:15:09.654Z,91.37
2017-11-29T07:17:35.990Z,89.37
2017-11-29T07:20:02.393Z,83.10
2017-11-29T07:22:28.770Z,85.50
2017-11-29T07:24:55.181Z,80.50
2017-11-29T07:27:21.554Z,83.27
2017-11-29T07:29:47.880Z,76.87
2017-11-29T07:32:14.253Z,74.97
2017-11-29T07:34:40.744Z,72.97
2017-11-29T07:37:07.144Z,67.93
2017-11-29T07:39:33.506Z,66.90
2017-11-29T07:41:59.873Z,57.90
2017-11-29T07:44:26.265Z,69.20
2017-11-29T07:46:52.614Z,68.23
2017-11-29T07:49:19.056Z,71.23
2017-11-29T07:51:45.401Z,74.07
2017-11-29T07:54:11.726Z,70.40
2017-11-29T07:56:38.096Z,72.60
2017-11-29T07:59:04.430Z,67.80
2017-11-29T08:01:30.770Z,58.50
2017-11-29T08:03:57.174Z,59.77
2017-11-29T08:06:23.537Z,79.30
2017-11-29T08:08:49.910Z,62.97
2017-11-29T08:11:16.288Z,72.73
2017-11-29T08:13:42.645Z,85.23
2017-11-29T08:16:09.018Z,75.87
2017-11-29T08:18:35.376Z,86.17
2017-11-29T08:21:01.746Z,80.77
2017-11-29T08:23:28.094Z,65.40
2017-11-29T08:25:54.634Z,75.87
2017-11-29T08:28:21.116Z,74.43
2017-11-29T08:30:47.735Z,75.90
2017-11-29T08:33:14.262Z,66.13
2017-11-29T08:35:40.695Z,47.60
2017-11-29T08:38:07.219Z,46.47
2017-11-29T08:40:33.866Z,46.90
2017-11-29T08:43:00.477Z,46.23
2017-11-29T08:45:26.894Z,44.40
2017-11-29T08:47:53.428Z,42.03
2017-11-29T08:50:19.917Z,38.33
2017-11-29T08:52:46.345Z,42.33
2017-11-29T08:55:12.905Z,44.73
2017-11-29T08:57:39.387Z,35.03
2017-11-29T09:00:05.806Z,48.17
2017-11-29T09:02:32.282Z,44.27
2017-11-29T09:04:58.737Z,36.23
2017-11-29T09:07:25.283Z,39.80
2017-11-29T09:09:51.766Z,30.47
2017-11-29T09:12:18.183Z,33.40
2017-11-29T09:14:44.817Z,30.13
2017-11-29T09:17:11.290Z,32.90
2017-11-29T09:19:37.824Z,27.23
2017-11-29T09:22:04.290Z,25.33
2017-11-29T09:24:30.768Z,26.70
2017-11-29T09:26:58.098Z,34.90
2017-11-29T09:29:24.542Z,31.93
2017-11-29T09:31:51.286Z,30.07
2017-11-29T09:34:17.742Z,23.20
2017-11-29T09:36:44.192Z,22.90
2017-11-29T09:39:10.691Z,24.23
2017-11-29T09:41:37.337Z,23.23
2017-11-29T09:44:03.798Z,23.73
2017-11-29T09:46:30.246Z,24.23
2017-11-29T09:48:56.708Z,23.00
2017-11-29T09:51:23.158Z,23.47
2017-11-29T09:53:49.689Z,26.17
2017-11-29T09:56:16.201Z,27.87
2017-11-29T09:58:42.756Z,27.43
2017-11-29T10:01:09.242Z,25.50
2017-11-29T10:03:35.681Z,22.57
2017-11-29T10:06:02.174Z,24.53
2017-11-29T10:08:28.646Z,23.40
2017-11-29T10:10:55.081Z,24.90
2017-11-29T10:13:21.535Z,22.37
2017-11-29T10:15:48.020Z,26.07
2017-11-29T10:18:14.590Z,24.43
2017-11-29T10:20:41.025Z,27.93
2017-11-29T10:23:07.498Z,26.80
2017-11-29T10:25:33.982Z,24.30
2017-11-29T10:28:00.422Z,34.70
2017-11-29T10:30:27.090Z,25.90
2017-11-29T10:32:53.554Z,22.03
2017-11-29T10:35:20.051Z,21.97
2017-11-29T10:37:46.602Z,28.93
2017-11-29T10:40:13.116Z,28.60
2017-11-29T10:42:39.552Z,25.73
2017-11-29T10:45:06.170Z,28.77
2017-11-29T10:47:32.597Z,26.70
2017-11-29T10:49:59.037Z,26.97
2017-11-29T10:52:25.523Z,26.70
2017-11-29T10:54:51.950Z,23.00
2017-11-29T10:57:18.408Z,24.40
2017-11-29T10:59:44.864Z,27.20
2017-11-29T11:02:11.328Z,25.47
2017-11-29T11:04:37.791Z,23.13
2017-11-29T11:07:04.652Z,27.23
2017-11-29T11:09:31.328Z,29.57
2017-11-29T11:11:57.988Z,25.47
2017-11-29T11:14:24.465Z,25.47
2017-11-29T11:16:50.897Z,30.47
2017-11-29T11:19:17.331Z,30.13
2017-11-29T11:21:43.833Z,29.50
2017-11-29T11:24:10.359Z,28.40
2017-11-29T11:26:36.853Z,27.77
2017-11-29T11:29:03.396Z,26.50
2017-11-29T11:31:29.837Z,23.83
2017-11-29T11:33:56.323Z,25.70
2017-11-29T11:36:22.850Z,25.13
2017-11-29T11:38:49.353Z,25.60
2017-11-29T11:41:15.851Z,24.27
2017-11-29T11:43:42.328Z,28.90
2017-11-29T11:46:08.787Z,27.77
2017-11-29T11:48:35.231Z,33.27
2017-11-29T11:51:01.707Z,30.50
2017-11-29T11:53:28.269Z,25.30
2017-11-29T11:55:54.722Z,26.13
2017-11-29T11:58:21.214Z,25.17
2017-11-29T12:00:47.716Z,20.47
2017-11-29T12:03:14.258Z,22.03
2017-11-29T12:05:40.746Z,20.67
2017-11-29T12:08:07.165Z,23.60
2017-11-29T12:10:33.607Z,25.80
2017-11-29T12:13:00.096Z,22.23
2017-11-29T12:15:26.507Z,19.67
2017-11-29T12:17:53.078Z,18.80
2017-11-29T12:20:19.589Z,21.13
2017-11-29T12:22:46.082Z,19.17
2017-11-29T12:25:12.502Z,20.87
2017-11-29T12:27:39.010Z,21.73
2017-11-29T12:30:05.458Z,17.77
2017-11-29T12:32:31.882Z,21.07
2017-11-29T12:34:58.382Z,22.30
2017-11-29T12:37:24.848Z,24.67
2017-11-29T12:39:51.281Z,25.13
2017-11-29T12:42:17.887Z,23.30
2017-11-29T12:44:44.495Z,24.47
2017-11-29T12:47:10.979Z,24.23
2017-11-29T12:49:49.752Z,26.87
2017-11-29T12:52:16.066Z,27.00
2017-11-29T12:54:42.473Z,26.23
2017-11-29T12:57:08.951Z,31.43
2017-11-29T12:59:35.362Z,33.20
2017-11-29T13:02:01.992Z,27.37
2017-11-29T13:04:28.667Z,28.63
2017-11-29T13:06:55.298Z,29.83
2017-11-29T13:09:21.838Z,24.43
2017-11-29T13:11:48.346Z,32.60
2017-11-29T13:14:14.801Z,29.53
2017-11-29T13:16:41.235Z,28.00
2017-11-29T13:19:07.769Z,30.50
2017-11-29T13:21:34.177Z,25.93
2017-11-29T13:24:00.757Z,27.53
2017-11-29T13:26:27.580Z,27.60
2017-11-29T13:28:54.043Z,22.07
2017-11-29T13:31:20.486Z,23.03
2017-11-29T13:33:46.966Z,23.63
2017-11-29T13:36:13.389Z,26.47
2017-11-29T13:38:39.970Z,34.33
2017-11-29T13:41:06.448Z,30.33
2017-11-29T13:43:32.874Z,34.20
2017-11-29T13:45:59.331Z,29.33
2017-11-29T13:48:26.128Z,34.63
2017-11-29T13:50:52.557Z,36.93
2017-11-29T13:53:19.010Z,36.63
2017-11-29T13:55:45.497Z,25.10
2017-11-29T13:58:11.935Z,28.57
2017-11-29T14:00:38.367Z,30.23
2017-11-29T14:03:04.841Z,34.80
2017-11-29T14:05:31.281Z,28.27
2017-11-29T14:07:57.734Z,30.13
2017-11-29T14:10:24.182Z,27.27
2017-11-29T14:12:50.515Z,29.73
2017-11-29T14:15:16.893Z,36.73
2017-11-29T14:17:43.279Z,37.43
2017-11-29T14:20:09.625Z,34.80
2017-11-29T14:22:35.987Z,31.00
2017-11-29T14:25:02.373Z,33.63
2017-11-29T14:27:28.757Z,35.23
2017-11-29T14:29:55.206Z,37.57
2017-11-29T14:32:21.758Z,45.60
2017-11-29T14:34:48.121Z,40.00
2017-11-29T14:37:14.486Z,42.57
2017-11-29T14:39:41.245Z,39.43
2017-11-29T14:42:07.642Z,35.30
2017-11-29T14:44:33.981Z,32.50
2017-11-29T14:47:00.375Z,40.97
2017-11-29T14:49:27.308Z,48.87
2017-11-29T14:51:54.864Z,54.53
2017-11-29T14:54:24.628Z,59.17
2017-11-29T14:56:53.048Z,73.23
2017-11-29T14:59:24.455Z,73.83
2017-11-29T15:01:51.940Z,75.57
2017-11-29T15:04:24.256Z,72.93
2017-11-29T15:06:53.925Z,71.17
2017-11-29T15:09:24.576Z,87.90
2017-11-29T15:11:53.456Z,43.60
2017-11-29T15:14:23.447Z,78.53
2017-11-29T15:16:50.062Z,101.80
2017-11-29T15:19:16.409Z,158.13
2017-11-29T15:21:42.794Z,143.03
2017-11-29T15:24:09.185Z,118.33
2017-11-29T15:26:35.518Z,128.87
2017-11-29T15:29:01.930Z,115.23
2017-11-29T15:31:28.356Z,129.73
2017-11-29T15:33:54.776Z,207.93
2017-11-29T15:36:21.241Z,165.23
2017-11-29T15:38:47.640Z,165.00
2017-11-29T15:41:14.038Z,161.40
2017-11-29T15:43:40.535Z,146.13
2017-11-29T15:46:07.177Z,137.87
2017-11-29T15:48:33.653Z,115.97
2017-11-29T15:51:00.157Z,120.90
2017-11-29T15:53:26.556Z,162.37
2017-11-29T15:55:52.933Z,156.53
2017-11-29T15:58:19.326Z,153.90
2017-11-29T16:00:45.750Z,155.23
2017-11-29T16:03:12.145Z,149.63
2017-11-29T16:05:38.570Z,149.17
2017-11-29T16:08:04.943Z,143.07
2017-11-29T16:10:31.353Z,166.23
2017-11-29T16:12:57.827Z,161.87
2017-11-29T16:15:24.219Z,156.87
2017-11-29T16:17:50.676Z,226.77
2017-11-29T16:20:17.153Z,201.40
2017-11-29T16:22:43.525Z,184.93
2017-11-29T16:25:09.955Z,179.40
2017-11-29T16:27:36.569Z,139.67
2017-11-29T16:30:03.030Z,120.80
2017-11-29T16:32:29.435Z,104.00
2017-11-29T16:34:55.891Z,102.20
2017-11-29T16:37:22.325Z,106.23
2017-11-29T16:39:48.758Z,129.13
2017-11-29T16:42:15.815Z,190.73
2017-11-29T16:44:42.982Z,201.50
2017-11-29T16:47:09.349Z,173.17
2017-11-29T16:49:35.787Z,160.47
2017-11-29T16:52:02.206Z,163.93
2017-11-29T16:54:28.598Z,154.07
2017-11-29T16:56:54.992Z,160.20
2017-11-29T16:59:21.406Z,148.83
2017-11-29T17:01:47.759Z,148.37
2017-11-29T17:04:14.220Z,148.90
2017-11-29T17:06:40.693Z,159.53
2017-11-29T17:09:07.059Z,163.60
2017-11-29T17:11:33.509Z,164.80
2017-11-29T17:13:59.977Z,167.13
2017-11-29T17:16:26.365Z,159.30
2017-11-29T17:18:52.808Z,152.50
2017-11-29T17:21:19.162Z,139.57
2017-11-29T17:23:45.559Z,139.00
2017-11-29T17:26:11.974Z,152.20
2017-11-29T17:28:38.345Z,170.77
2017-11-29T17:31:04.777Z,171.80
2017-11-29T17:33:31.238Z,187.90
2017-11-29T17:35:57.689Z,181.07
2017-11-29T17:38:24.079Z,165.17
2017-11-29T17:40:50.601Z,188.27
2017-11-29T17:43:16.968Z,172.70
2017-11-29T17:45:43.332Z,170.17
2017-11-29T17:48:09.735Z,146.20
2017-11-29T17:50:36.114Z,162.00
2017-11-29T17:53:02.497Z,135.03
2017-11-29T17:55:28.954Z,137.23
2017-11-29T17:57:55.497Z,129.73
2017-11-29T18:00:21.928Z,118.33
2017-11-29T18:02:48.410Z,112.67
2017-11-29T18:05:14.823Z,108.50
2017-11-29T18:07:41.199Z,108.83
2017-11-29T18:10:07.638Z,103.00
2017-11-29T18:12:34.066Z,103.50
2017-11-29T18:15:00.496Z,110.33
2017-11-29T18:17:27.036Z,100.60
2017-11-29T18:19:53.498Z,94.57
2017-11-29T18:22:19.940Z,95.50
2017-11-29T18:24:46.456Z,96.17
2017-11-29T18:27:12.850Z,106.87
2017-11-29T18:29:39.279Z,114.67
2017-11-29T18:32:05.750Z,118.50
2017-11-29T18:34:32.122Z,126.53
2017-11-29T18:36:58.542Z,109.90
2017-11-29T18:39:24.939Z,112.63
2017-11-29T18:41:52.083Z,113.23
2017-11-29T18:44:23.455Z,114.50
2017-11-29T18:46:52.861Z,116.83
2017-11-29T18:49:24.205Z,131.80
2017-11-29T18:51:53.119Z,130.93
2017-11-29T18:54:20.761Z,139.70
2017-11-29T18:56:48.527Z,112.20
2017-11-29T18:59:16.786Z,110.13
2017-11-29T19:01:44.243Z,102.83
2017-11-29T19:04:11.898Z,106.97
2017-11-29T19:06:38.435Z,110.63
2017-11-29T19:09:04.875Z,109.53
2017-11-29T19:11:31.288Z,102.63
2017-11-29T19:13:57.746Z,106.60
2017-11-29T19:16:24.206Z,122.07
2017-11-29T19:18:50.618Z,125.50
2017-11-29T19:21:17.110Z,126.53
2017-11-29T19:23:43.596Z,127.17
2017-11-29T19:26:10.011Z,123.67
2017-11-29T19:28:36.454Z,96.70
2017-11-29T19:31:02.949Z,69.93
2017-11-29T19:33:29.612Z,54.63
2017-11-29T19:35:56.054Z,41.23
2017-11-29T19:38:22.481Z,37.33
2017-11-29T19:40:48.910Z,35.17
2017-11-29T19:43:15.293Z,34.17
2017-11-29T19:45:41.699Z,35.50
2017-11-29T19:48:08.081Z,33.10
2017-11-29T19:50:34.519Z,38.37
2017-11-29T19:53:00.883Z,48.00
2017-11-29T19:55:27.253Z,59.23
2017-11-29T19:57:53.722Z,72.13
2017-11-29T20:00:20.081Z,86.20
2017-11-29T20:02:46.543Z,101.70
2017-11-29T20:05:13.087Z,104.53
2017-11-29T20:07:39.475Z,107.60
2017-11-29T20:10:05.976Z,120.13
2017-11-29T20:12:32.541Z,113.23
2017-11-29T20:14:59.033Z,106.80
2017-11-29T20:17:25.614Z,109.97
2017-11-29T20:19:52.083Z,111.10
2017-11-29T20:22:18.684Z,106.03
2017-11-29T20:24:45.663Z,118.20
2017-11-29T20:27:14.049Z,116.93
2017-11-29T20:29:41.902Z,110.37
2017-11-29T20:32:10.605Z,128.70
2017-11-29T20:34:39.198Z,115.63
2017-11-29T20:37:07.431Z,95.63
2017-11-29T20:39:34.423Z,93.23
2017-11-29T20:42:01.373Z,102.70
2017-11-29T20:44:27.882Z,102.37
2017-11-29T20:46:54.248Z,102.33
2017-11-29T20:49:20.721Z,109.43
2017-11-29T20:51:47.114Z,110.40
2017-11-29T20:54:13.500Z,96.83
2017-11-29T20:56:39.942Z,125.77
2017-11-29T20:59:06.298Z,116.13
2017-11-29T21:01:32.729Z,103.00
2017-11-29T21:03:59.247Z,105.63
2017-11-29T21:06:25.891Z,103.73
2017-11-29T21:08:52.308Z,129.53
2017-11-29T21:11:18.834Z,148.97
2017-11-29T21:13:45.219Z,161.13
2017-11-29T21:16:11.646Z,167.70
2017-11-29T21:18:38.128Z,118.53
2017-11-29T21:21:04.489Z,98.70
2017-11-29T21:23:30.840Z,97.30
2017-11-29T21:25:57.260Z,104.70
2017-11-29T21:28:23.681Z,106.73
2017-11-29T21:30:50.102Z,109.57
2017-11-29T21:33:16.495Z,112.20
2017-11-29T21:35:42.863Z,112.47
2017-11-29T21:38:09.423Z,122.17
2017-11-29T21:40:35.855Z,124.10
2017-11-29T21:43:02.206Z,124.60
2017-11-29T21:45:28.666Z,129.90
2017-11-29T21:47:55.100Z,108.40
2017-11-29T21:50:21.513Z,104.90
2017-11-29T21:52:47.925Z,100.50
2017-11-29T21:55:14.330Z,99.23
2017-11-29T21:57:40.667Z,98.67
2017-11-29T22:00:07.026Z,89.00
2017-11-29T22:02:34.230Z,82.80
2017-11-29T22:05:01.251Z,77.53
2017-11-29T22:07:27.660Z,79.60
2017-11-29T22:09:54.045Z,76.80
2017-11-29T22:12:20.380Z,82.27
2017-11-29T22:14:46.747Z,80.30
2017-11-29T22:17:13.183Z,87.67
2017-11-29T22:19:39.578Z,79.80
2017-11-29T22:22:06.005Z,87.33
2017-11-29T22:24:32.377Z,93.33
2017-11-29T22:26:58.764Z,87.87
2017-11-29T22:29:25.176Z,89.33
2017-11-29T22:31:51.586Z,92.57
2017-11-29T22:34:17.964Z,86.73
2017-11-29T22:36:44.342Z,80.90
2017-11-29T22:39:10.729Z,84.13
2017-11-29T22:41:37.105Z,88.33
2017-11-29T22:44:03.487Z,89.50
2017-11-29T22:46:29.905Z,100.13
2017-11-29T22:48:56.284Z,91.53
2017-11-29T22:51:22.788Z,89.77
2017-11-29T22:53:49.239Z,97.57
2017-11-29T22:56:15.586Z,101.30
2017-11-29T22:58:41.971Z,111.07
2017-11-29T23:01:08.379Z,116.63
2017-11-29T23:03:34.750Z,106.43
2017-11-29T23:06:01.101Z,112.83
2017-11-29T23:08:27.511Z,116.83
2017-11-29T23:10:53.870Z,124.03
2017-11-29T23:13:20.260Z,123.90
2017-11-29T23:15:46.647Z,120.83
2017-11-29T23:18:13.021Z,117.40
2017-11-29T23:20:39.390Z,114.17
2017-11-29T23:23:05.803Z,118.43
2017-11-29T23:25:32.246Z,122.77
2017-11-29T23:27:58.683Z,129.80
2017-11-29T23:30:25.089Z,121.37
2017-11-29T23:32:51.468Z,124.07
2017-11-29T23:35:17.841Z,126.83
2017-11-29T23:37:44.261Z,124.93
2017-11-29T23:40:10.609Z,125.53
2017-11-29T23:42:37.069Z,120.33
2017-11-29T23:45:03.533Z,122.60
2017-11-29T23:47:29.922Z,120.13
2017-11-29T23:49:56.336Z,129.73
2017-11-29T23:52:22.816Z,126.07
2017-11-29T23:54:49.205Z,116.33
2017-11-29T23:57:15.574Z,115.07
2017-11-29T23:59:41.965Z,104.53
